Time;durP1;ratioP1;P1;durP2;ratioP2;P2;SDS_P1;SDS_P2;PMS_P1;PMS_P2;Temp;Humidity;BMP_temperature;BMP_pressure;BME280_temperature;BME280_humidity;BME280_pressure;Samples;Min_cycle;Max_cycle;Signal;HPM_P1;HPM_P2
2023/12/03 00:01:47;;;;;;;41.60;20.87;;;4.90;71.60;;;;;;5109876;28;20027;-69
2023/12/03 00:04:13;;;;;;;34.53;18.90;;;4.90;71.70;;;;;;5078826;28;20039;-69
2023/12/03 00:06:39;;;;;;;33.00;17.90;;;4.90;71.70;;;;;;5099528;28;20038;-69
2023/12/03 00:09:05;;;;;;;35.57;20.40;;;4.90;71.80;;;;;;5086044;28;20036;-69
2023/12/03 00:11:31;;;;;;;39.10;19.77;;;4.90;71.80;;;;;;5107083;28;20031;-69
2023/12/03 00:13:57;;;;;;;41.73;22.07;;;4.90;71.80;;;;;;5104652;28;20043;-69
2023/12/03 00:16:22;;;;;;;37.70;20.30;;;4.90;71.80;;;;;;5109047;28;20065;-69
2023/12/03 00:18:48;;;;;;;39.27;21.20;;;4.90;71.80;;;;;;5118344;28;20119;-69
2023/12/03 00:21:14;;;;;;;38.87;20.40;;;4.90;71.90;;;;;;5104449;28;20059;-69
2023/12/03 00:23:40;;;;;;;40.50;20.83;;;4.90;71.90;;;;;;5108368;28;20028;-69
2023/12/03 00:26:05;;;;;;;39.03;20.13;;;4.90;72.00;;;;;;5072095;28;20512;-69
2023/12/03 00:28:31;;;;;;;42.23;19.93;;;4.90;72.00;;;;;;5067538;28;20452;-69
2023/12/03 00:30:57;;;;;;;34.80;18.80;;;4.90;72.10;;;;;;5114469;28;20030;-69
2023/12/03 00:33:23;;;;;;;38.50;21.43;;;4.90;72.10;;;;;;5081749;28;20360;-69
2023/12/03 00:35:49;;;;;;;36.97;19.20;;;4.90;72.10;;;;;;5100045;28;20139;-70
2023/12/03 00:38:15;;;;;;;38.90;19.73;;;4.90;72.20;;;;;;5101070;28;20397;-69
2023/12/03 00:40:41;;;;;;;38.50;20.90;;;4.80;72.20;;;;;;5108415;28;20035;-69
2023/12/03 00:43:06;;;;;;;36.93;19.33;;;4.90;72.30;;;;;;5099774;28;20076;-71
2023/12/03 00:45:32;;;;;;;42.33;20.73;;;4.80;72.30;;;;;;5098280;28;20317;-69
2023/12/03 00:47:59;;;;;;;42.67;22.20;;;4.90;72.40;;;;;;5085990;28;20020;-69
2023/12/03 00:50:24;;;;;;;41.83;19.83;;;4.80;72.50;;;;;;5075270;28;20119;-69
2023/12/03 00:52:50;;;;;;;39.47;20.70;;;4.90;72.60;;;;;;5098488;28;20111;-69
2023/12/03 00:55:16;;;;;;;40.60;21.90;;;4.90;72.50;;;;;;5107255;28;20103;-69
2023/12/03 00:57:42;;;;;;;41.83;21.40;;;4.90;72.60;;;;;;5102133;28;20023;-69
2023/12/03 01:00:08;;;;;;;47.83;22.83;;;4.90;72.50;;;;;;5103212;28;20015;-69
2023/12/03 01:02:35;;;;;;;41.83;21.13;;;4.90;72.60;;;;;;5098766;28;20409;-69
2023/12/03 01:05:01;;;;;;;43.67;22.50;;;4.80;72.70;;;;;;5115324;28;20043;-69
2023/12/03 01:07:27;;;;;;;44.90;22.10;;;4.80;72.80;;;;;;5067379;28;20016;-69
2023/12/03 01:09:52;;;;;;;48.03;21.83;;;4.80;72.90;;;;;;5071604;28;20299;-69
2023/12/03 01:12:18;;;;;;;42.93;19.93;;;4.80;72.90;;;;;;5044105;28;20021;-69
2023/12/03 01:14:44;;;;;;;48.10;22.00;;;4.80;73.00;;;;;;5096161;28;20057;-69
2023/12/03 01:17:09;;;;;;;44.73;20.90;;;4.80;73.00;;;;;;5082661;28;20048;-69
2023/12/03 01:19:36;;;;;;;47.77;21.00;;;4.80;73.10;;;;;;5111701;28;20073;-69
2023/12/03 01:22:02;;;;;;;42.93;20.27;;;4.80;73.20;;;;;;5080478;28;20013;-69
2023/12/03 01:24:29;;;;;;;41.60;18.97;;;4.80;73.20;;;;;;5109337;28;20050;-69
2023/12/03 01:26:55;;;;;;;40.17;19.13;;;4.80;73.30;;;;;;5089541;28;20161;-69
2023/12/03 01:29:21;;;;;;;44.60;20.23;;;4.80;73.40;;;;;;5095667;28;20072;-69
2023/12/03 01:31:47;;;;;;;39.53;20.00;;;4.80;73.50;;;;;;5103898;28;20024;-69
2023/12/03 01:34:13;;;;;;;42.43;19.47;;;4.80;73.70;;;;;;5106837;28;20364;-70
2023/12/03 01:36:38;;;;;;;35.23;16.57;;;4.70;73.70;;;;;;5097067;28;20032;-69
2023/12/03 01:39:07;;;;;;;33.47;16.73;;;4.70;74.50;;;;;;5065714;28;20024;-69
2023/12/03 01:41:33;;;;;;;40.20;18.40;;;4.70;74.00;;;;;;5059405;28;20032;-69
2023/12/03 01:43:59;;;;;;;43.30;18.47;;;4.70;74.00;;;;;;5111964;28;20076;-70
2023/12/03 01:46:27;;;;;;;43.60;18.80;;;4.70;74.10;;;;;;5092042;28;20030;-69
2023/12/03 01:48:54;;;;;;;36.60;17.83;;;4.70;74.20;;;;;;5095501;28;20119;-69
2023/12/03 01:51:19;;;;;;;38.60;19.10;;;4.70;74.30;;;;;;5112283;28;20043;-69
2023/12/03 01:53:46;;;;;;;41.97;18.90;;;4.70;74.40;;;;;;5108418;28;20027;-70
2023/12/03 01:56:12;;;;;;;39.43;17.60;;;4.80;74.50;;;;;;5091592;28;20035;-69
2023/12/03 01:58:39;;;;;;;35.17;17.43;;;4.80;74.50;;;;;;5080164;28;20119;-69
2023/12/03 02:01:06;;;;;;;43.30;19.10;;;4.80;74.60;;;;;;5110225;28;20036;-69
2023/12/03 02:03:31;;;;;;;43.30;18.20;;;4.80;74.60;;;;;;5105492;28;20031;-69
2023/12/03 02:06:05;;;;;;;42.37;18.47;;;4.80;74.60;;;;;;5098043;28;20027;-70
2023/12/03 02:08:32;;;;;;;42.93;19.07;;;4.90;74.60;;;;;;5078781;28;20029;-69
2023/12/03 02:10:59;;;;;;;39.60;18.43;;;4.80;74.70;;;;;;5093073;28;20103;-69
2023/12/03 02:13:27;;;;;;;42.90;18.23;;;4.90;74.80;;;;;;5107773;28;20028;-69
2023/12/03 02:15:52;;;;;;;44.17;20.73;;;4.80;74.80;;;;;;5107863;28;20044;-69
2023/12/03 02:18:19;;;;;;;41.53;18.90;;;4.90;75.00;;;;;;5068679;28;20038;-69
2023/12/03 02:20:44;;;;;;;42.37;19.60;;;4.80;74.90;;;;;;5093212;28;20103;-69
2023/12/03 02:23:10;;;;;;;43.53;21.07;;;4.90;75.10;;;;;;5104837;28;20071;-69
2023/12/03 02:25:36;;;;;;;42.17;17.93;;;4.80;75.10;;;;;;5105474;28;20020;-69
2023/12/03 02:28:01;;;;;;;40.20;19.30;;;4.80;75.20;;;;;;5099133;28;20437;-71
2023/12/03 02:30:27;;;;;;;44.17;20.13;;;4.80;75.30;;;;;;5101988;28;20110;-70
2023/12/03 02:32:53;;;;;;;44.30;19.87;;;4.90;75.40;;;;;;5104489;28;20527;-69
2023/12/03 02:35:19;;;;;;;42.70;20.60;;;4.90;75.40;;;;;;5095606;28;20023;-69
2023/12/03 02:37:44;;;;;;;40.93;19.87;;;4.90;75.40;;;;;;5102384;28;20024;-69
2023/12/03 02:40:10;;;;;;;47.70;21.67;;;4.90;75.40;;;;;;5108089;28;20123;-70
2023/12/03 02:42:36;;;;;;;44.93;20.73;;;4.90;75.40;;;;;;5103915;28;20062;-69
2023/12/03 02:45:02;;;;;;;45.07;19.93;;;4.90;75.50;;;;;;5079281;28;20074;-69
2023/12/03 02:47:27;;;;;;;45.50;21.17;;;5.00;75.60;;;;;;5087390;28;20035;-69
2023/12/03 02:49:53;;;;;;;47.13;20.50;;;4.90;75.60;;;;;;5084994;28;20039;-70
2023/12/03 02:52:19;;;;;;;47.77;20.80;;;4.90;75.60;;;;;;5113638;28;20027;-69
2023/12/03 02:54:44;;;;;;;41.20;19.93;;;4.90;75.60;;;;;;5096859;28;20031;-69
2023/12/03 02:57:10;;;;;;;45.07;20.37;;;5.00;75.70;;;;;;5096824;28;20054;-69
2023/12/03 02:59:36;;;;;;;42.97;20.10;;;5.00;75.80;;;;;;5059863;28;20512;-69
2023/12/03 03:02:02;;;;;;;44.43;19.63;;;5.00;75.80;;;;;;5087504;28;20024;-69
2023/12/03 03:04:27;;;;;;;46.97;21.57;;;5.00;75.80;;;;;;5081724;28;20032;-69
2023/12/03 03:06:53;;;;;;;40.60;19.97;;;5.00;75.80;;;;;;5093043;28;20024;-69
2023/12/03 03:09:19;;;;;;;42.40;19.30;;;5.00;75.90;;;;;;5074821;28;20115;-69
2023/12/03 03:11:44;;;;;;;37.47;18.87;;;5.00;75.90;;;;;;5100996;28;20145;-69
2023/12/03 03:14:10;;;;;;;38.70;19.67;;;5.10;75.90;;;;;;5089850;28;20438;-69
2023/12/03 03:16:36;;;;;;;39.57;19.37;;;5.10;75.90;;;;;;5091483;28;20047;-69
2023/12/03 03:19:04;;;;;;;38.10;18.87;;;5.10;75.90;;;;;;5093244;28;20043;-69
2023/12/03 03:21:30;;;;;;;38.63;19.17;;;5.10;75.90;;;;;;5085316;28;20085;-69
2023/12/03 03:23:56;;;;;;;40.30;20.67;;;5.10;76.00;;;;;;5099472;28;20294;-69
2023/12/03 03:26:21;;;;;;;40.13;20.33;;;5.10;76.00;;;;;;5057632;28;20020;-69
2023/12/03 03:28:47;;;;;;;42.30;20.57;;;5.10;76.00;;;;;;5104448;28;20016;-69
2023/12/03 03:31:13;;;;;;;41.50;19.20;;;5.10;76.00;;;;;;5093775;28;20428;-69
2023/12/03 03:33:38;;;;;;;41.07;20.33;;;5.20;76.00;;;;;;5107980;28;20111;-70
2023/12/03 03:36:05;;;;;;;43.00;22.63;;;5.20;75.90;;;;;;5107311;28;20110;-69
2023/12/03 03:38:30;;;;;;;48.23;21.57;;;5.20;75.90;;;;;;5100528;28;20391;-70
2023/12/03 03:40:57;;;;;;;40.20;20.20;;;5.20;76.00;;;;;;5099941;28;20058;-69
2023/12/03 03:43:23;;;;;;;41.20;20.63;;;5.20;76.10;;;;;;5089526;28;20024;-69
2023/12/03 03:45:49;;;;;;;37.07;20.10;;;5.20;76.10;;;;;;5078553;28;20124;-70
2023/12/03 03:48:15;;;;;;;38.73;19.97;;;5.20;76.10;;;;;;5066218;28;20168;-69
2023/12/03 03:50:41;;;;;;;39.83;19.73;;;5.20;76.00;;;;;;5101640;28;20032;-69
2023/12/03 03:53:06;;;;;;;39.67;20.77;;;5.20;75.90;;;;;;5081542;28;20036;-69
2023/12/03 03:55:32;;;;;;;35.30;19.73;;;5.30;75.90;;;;;;5110519;28;20028;-69
2023/12/03 03:57:58;;;;;;;38.33;20.00;;;5.30;75.90;;;;;;5110783;28;20055;-69
2023/12/03 04:00:23;;;;;;;37.27;20.70;;;5.30;75.90;;;;;;5058796;28;20038;-69
2023/12/03 04:02:50;;;;;;;39.73;21.53;;;5.30;75.90;;;;;;5079998;28;20028;-69
2023/12/03 04:05:16;;;;;;;36.60;20.90;;;5.30;75.80;;;;;;5096595;28;20093;-69
2023/12/03 04:07:42;;;;;;;35.23;21.33;;;5.30;75.80;;;;;;5109693;28;20028;-69
2023/12/03 04:10:10;;;;;;;37.60;21.47;;;5.30;75.80;;;;;;5097598;28;20028;-69
2023/12/03 04:12:35;;;;;;;34.77;20.27;;;5.30;75.80;;;;;;5080087;28;20460;-69
2023/12/03 04:15:01;;;;;;;35.33;20.20;;;5.30;75.80;;;;;;5097933;28;20072;-69
2023/12/03 04:17:27;;;;;;;37.67;20.40;;;5.30;75.80;;;;;;5079756;28;20369;-69
2023/12/03 04:19:53;;;;;;;37.37;21.20;;;5.30;75.70;;;;;;5087704;28;20335;-69
2023/12/03 04:22:18;;;;;;;36.30;20.93;;;5.30;75.80;;;;;;5076112;28;20386;-69
2023/12/03 04:24:47;;;;;;;36.03;20.73;;;5.30;75.70;;;;;;5109766;28;20028;-69
2023/12/03 04:27:13;;;;;;;33.30;19.87;;;5.30;75.70;;;;;;5093464;28;20110;-69
2023/12/03 04:29:38;;;;;;;33.70;20.50;;;5.30;75.60;;;;;;5081521;28;20501;-69
2023/12/03 04:32:05;;;;;;;34.10;19.03;;;5.30;75.60;;;;;;5094549;28;20028;-69
2023/12/03 04:34:30;;;;;;;35.30;20.10;;;5.30;75.60;;;;;;5090274;28;20028;-69
2023/12/03 04:36:56;;;;;;;32.13;19.67;;;5.30;75.60;;;;;;5070786;28;20382;-69
2023/12/03 04:39:22;;;;;;;34.20;20.03;;;5.30;75.50;;;;;;5110594;28;20037;-69
2023/12/03 04:41:48;;;;;;;32.33;19.23;;;5.30;75.50;;;;;;5087207;28;20047;-69
2023/12/03 04:44:13;;;;;;;34.47;20.17;;;5.30;75.50;;;;;;5108890;28;20046;-69
2023/12/03 04:46:42;;;;;;;36.47;19.77;;;5.30;75.50;;;;;;5086251;28;20039;-69
2023/12/03 04:49:08;;;;;;;31.73;19.13;;;5.30;75.40;;;;;;5105360;28;20187;-69
2023/12/03 04:51:34;;;;;;;35.13;20.07;;;5.30;75.40;;;;;;5080708;28;20166;-69
2023/12/03 04:54:00;;;;;;;30.93;19.23;;;5.30;75.40;;;;;;5067692;28;20421;-69
2023/12/03 04:56:25;;;;;;;31.27;19.37;;;5.30;75.40;;;;;;5077154;28;20036;-70
2023/12/03 04:58:52;;;;;;;31.57;18.07;;;5.30;75.40;;;;;;5094557;28;20035;-69
2023/12/03 05:01:18;;;;;;;30.17;18.73;;;5.30;75.50;;;;;;5071665;28;20032;-69
2023/12/03 05:03:45;;;;;;;31.33;18.37;;;5.30;75.40;;;;;;5058805;28;20396;-69
2023/12/03 05:06:11;;;;;;;28.83;17.73;;;5.30;75.30;;;;;;5080113;28;20348;-69
2023/12/03 05:08:37;;;;;;;28.73;16.57;;;5.30;75.30;;;;;;5094754;28;20456;-69
2023/12/03 05:11:07;;;;;;;26.87;16.17;;;5.30;75.20;;;;;;5059185;28;20038;-69
2023/12/03 05:13:33;;;;;;;28.77;16.50;;;5.30;75.10;;;;;;5049196;28;20101;-69
2023/12/03 05:16:04;;;;;;;26.17;16.70;;;5.30;75.00;;;;;;5094500;28;20040;-69
2023/12/03 05:18:30;;;;;;;26.10;15.83;;;5.30;75.00;;;;;;5093769;28;20040;-69
2023/12/03 05:20:57;;;;;;;26.83;16.27;;;5.30;74.90;;;;;;5091621;28;20035;-69
2023/12/03 05:23:23;;;;;;;27.30;16.63;;;5.30;74.90;;;;;;5059963;28;20504;-69
2023/12/03 05:25:49;;;;;;;30.00;16.90;;;5.30;74.80;;;;;;5088779;28;20093;-69
2023/12/03 05:28:15;;;;;;;28.37;16.30;;;5.30;74.80;;;;;;5087985;28;20023;-69
2023/12/03 05:30:41;;;;;;;30.37;16.10;;;5.30;74.80;;;;;;5072402;28;20516;-69
2023/12/03 05:33:06;;;;;;;27.57;16.77;;;5.30;74.80;;;;;;5096012;28;20056;-69
2023/12/03 05:35:33;;;;;;;26.20;16.50;;;5.30;74.80;;;;;;5098144;28;20109;-69
2023/12/03 05:37:59;;;;;;;26.67;15.60;;;5.30;74.80;;;;;;5089417;28;20445;-69
2023/12/03 05:40:24;;;;;;;26.87;16.43;;;5.30;74.80;;;;;;5076896;28;20341;-69
2023/12/03 05:42:50;;;;;;;29.83;16.87;;;5.20;74.70;;;;;;5059582;28;20035;-69
2023/12/03 05:45:16;;;;;;;31.57;17.63;;;5.20;74.60;;;;;;5058468;28;20380;-69
2023/12/03 05:47:42;;;;;;;29.47;18.27;;;5.20;74.60;;;;;;5094628;28;20610;-69
2023/12/03 05:50:08;;;;;;;29.87;19.53;;;5.20;74.50;;;;;;5073431;28;20032;-69
2023/12/03 05:52:34;;;;;;;32.10;19.33;;;5.20;74.50;;;;;;5076366;28;20437;-69
2023/12/03 05:54:59;;;;;;;28.30;17.33;;;5.10;74.50;;;;;;5077486;28;20036;-69
2023/12/03 05:57:25;;;;;;;29.53;17.63;;;5.10;74.50;;;;;;5092711;28;20089;-69
2023/12/03 05:59:52;;;;;;;27.90;16.70;;;5.10;74.50;;;;;;5092815;28;20051;-69
2023/12/03 06:02:18;;;;;;;30.07;16.83;;;5.00;74.40;;;;;;5074738;28;20047;-69
2023/12/03 06:04:44;;;;;;;30.97;17.40;;;5.00;74.40;;;;;;5071846;28;20028;-69
2023/12/03 06:07:10;;;;;;;29.67;16.83;;;5.00;74.40;;;;;;5088021;28;20042;-69
2023/12/03 06:09:35;;;;;;;28.13;17.00;;;5.00;74.40;;;;;;5075367;28;20115;-69
2023/12/03 06:12:01;;;;;;;25.80;15.57;;;4.90;74.40;;;;;;5075513;28;20028;-69
2023/12/03 06:14:27;;;;;;;27.80;15.63;;;4.90;74.40;;;;;;5073005;28;20397;-69
2023/12/03 06:16:53;;;;;;;25.73;15.77;;;4.90;74.40;;;;;;5089268;28;20058;-69
2023/12/03 06:19:19;;;;;;;30.10;16.50;;;4.90;74.40;;;;;;5062254;28;20028;-69
2023/12/03 06:21:44;;;;;;;28.30;15.93;;;4.90;74.30;;;;;;5094802;28;20028;-69
2023/12/03 06:24:10;;;;;;;27.47;15.57;;;4.90;74.30;;;;;;5094122;28;20016;-69
2023/12/03 06:26:36;;;;;;;27.33;15.80;;;4.90;74.40;;;;;;5100527;28;20055;-69
2023/12/03 06:29:01;;;;;;;28.40;16.23;;;4.90;74.30;;;;;;5075236;28;20445;-69
2023/12/03 06:31:27;;;;;;;30.73;16.23;;;4.80;74.20;;;;;;5092172;28;20083;-69
2023/12/03 06:33:53;;;;;;;27.67;15.97;;;4.90;74.30;;;;;;5073734;28;20119;-69
2023/12/03 06:36:19;;;;;;;29.10;16.47;;;4.80;74.20;;;;;;5074999;28;20592;-69
2023/12/03 06:38:45;;;;;;;28.50;14.87;;;4.80;74.20;;;;;;5074963;28;20035;-69
2023/12/03 06:41:11;;;;;;;28.73;15.80;;;4.80;74.20;;;;;;5076004;28;20024;-69
2023/12/03 06:43:36;;;;;;;30.63;16.87;;;4.80;74.20;;;;;;5095506;28;20024;-69
2023/12/03 06:46:02;;;;;;;29.07;15.73;;;4.80;74.20;;;;;;5073576;28;20088;-69
2023/12/03 06:48:28;;;;;;;29.97;16.50;;;4.80;74.10;;;;;;5072636;28;20046;-69
2023/12/03 06:50:54;;;;;;;26.20;15.30;;;4.80;74.10;;;;;;5091148;28;20457;-69
2023/12/03 06:53:20;;;;;;;30.50;16.07;;;4.80;74.10;;;;;;5078984;28;20115;-69
2023/12/03 06:55:46;;;;;;;28.67;16.73;;;4.70;74.10;;;;;;5079997;28;20032;-69
2023/12/03 06:58:12;;;;;;;29.43;16.13;;;4.70;74.10;;;;;;5071376;28;20038;-69
2023/12/03 07:00:38;;;;;;;36.53;17.57;;;4.70;74.10;;;;;;5088153;28;20035;-69
2023/12/03 07:03:04;;;;;;;30.40;15.80;;;4.70;74.00;;;;;;5093921;28;20020;-69
2023/12/03 07:05:29;;;;;;;29.33;17.53;;;4.60;74.00;;;;;;5094141;28;20513;-69
2023/12/03 07:07:56;;;;;;;32.93;17.90;;;4.70;74.00;;;;;;5075457;28;20024;-69
2023/12/03 07:10:22;;;;;;;28.93;16.33;;;4.60;74.00;;;;;;5068035;28;20032;-69
2023/12/03 07:12:48;;;;;;;30.77;17.83;;;4.60;74.00;;;;;;5099630;28;20039;-69
2023/12/03 07:15:13;;;;;;;30.50;17.67;;;4.50;74.00;;;;;;5077126;28;20028;-69
2023/12/03 07:17:40;;;;;;;30.37;17.40;;;4.50;73.90;;;;;;5076310;28;20048;-69
2023/12/03 07:20:07;;;;;;;34.20;17.97;;;4.50;73.90;;;;;;5074277;28;20059;-69
2023/12/03 07:22:33;;;;;;;34.07;18.13;;;4.50;73.90;;;;;;5093943;28;20343;-69
2023/12/03 07:24:59;;;;;;;31.90;18.40;;;4.50;73.90;;;;;;5093889;28;20099;-69
2023/12/03 07:27:24;;;;;;;31.17;17.13;;;4.40;73.90;;;;;;5097870;28;20031;-68
2023/12/03 07:29:55;;;;;;;32.97;17.27;;;4.40;73.90;;;;;;5092245;28;20024;-69
2023/12/03 07:32:25;;;;;;;33.40;17.80;;;4.40;73.90;;;;;;5075758;28;20031;-69
2023/12/03 07:34:52;;;;;;;32.17;17.20;;;4.40;73.90;;;;;;5104494;28;20425;-69
2023/12/03 07:37:18;;;;;;;31.63;17.83;;;4.40;73.90;;;;;;5101615;28;20020;-69
2023/12/03 07:39:44;;;;;;;32.33;17.37;;;4.30;73.80;;;;;;5078378;28;20150;-70
2023/12/03 07:42:10;;;;;;;36.07;18.90;;;4.30;73.80;;;;;;5092499;28;20028;-70
2023/12/03 07:44:35;;;;;;;36.73;18.73;;;4.30;73.70;;;;;;5096071;28;20028;-69
2023/12/03 07:47:02;;;;;;;33.60;17.90;;;4.30;73.70;;;;;;5077951;28;20016;-70
2023/12/03 07:49:28;;;;;;;35.13;18.23;;;4.30;73.60;;;;;;5078024;28;20021;-70
2023/12/03 07:51:53;;;;;;;32.37;17.87;;;4.30;73.60;;;;;;5089336;28;20106;-67
2023/12/03 07:54:19;;;;;;;29.60;16.33;;;4.30;73.50;;;;;;5082853;28;20040;-68
2023/12/03 07:56:45;;;;;;;33.63;18.73;;;4.30;73.50;;;;;;5097105;28;20024;-68
2023/12/03 07:59:11;;;;;;;29.83;16.30;;;4.30;73.40;;;;;;5058901;28;20123;-68
2023/12/03 08:01:37;;;;;;;33.50;17.23;;;4.30;73.40;;;;;;5093320;28;20021;-68
2023/12/03 08:04:03;;;;;;;34.13;17.00;;;4.30;73.40;;;;;;5059470;28;20411;-68
2023/12/03 08:06:30;;;;;;;33.60;17.67;;;4.30;73.30;;;;;;5077467;28;20015;-68
2023/12/03 08:08:57;;;;;;;32.00;16.33;;;4.30;73.30;;;;;;5101650;28;20051;-68
2023/12/03 08:11:23;;;;;;;35.23;18.47;;;4.30;73.20;;;;;;5099602;28;20111;-68
2023/12/03 08:13:49;;;;;;;32.13;17.53;;;4.30;73.10;;;;;;5098249;28;20106;-68
2023/12/03 08:16:16;;;;;;;30.70;16.70;;;4.30;73.10;;;;;;5100399;28;20039;-69
2023/12/03 08:18:42;;;;;;;35.23;18.20;;;4.30;73.00;;;;;;5097137;28;20112;-68
2023/12/03 08:21:11;;;;;;;32.40;18.40;;;4.40;72.90;;;;;;5095633;28;20032;-68
2023/12/03 08:23:37;;;;;;;33.53;17.67;;;4.40;72.80;;;;;;5092898;28;20035;-68
2023/12/03 08:26:04;;;;;;;33.87;19.13;;;4.50;72.80;;;;;;5100612;28;20024;-68
2023/12/03 08:28:30;;;;;;;35.43;19.77;;;4.50;72.60;;;;;;5085026;28;20043;-68
2023/12/03 08:30:56;;;;;;;31.20;16.40;;;4.50;72.50;;;;;;5110298;28;20027;-68
2023/12/03 08:33:21;;;;;;;34.63;18.53;;;4.60;72.40;;;;;;5101653;28;20024;-68
2023/12/03 08:35:47;;;;;;;33.33;16.43;;;4.60;72.30;;;;;;5083049;28;20031;-69
2023/12/03 08:38:13;;;;;;;35.10;17.93;;;4.70;72.30;;;;;;5098679;28;20039;-69
2023/12/03 08:40:39;;;;;;;32.67;17.30;;;4.70;72.10;;;;;;5084524;28;20032;-67
2023/12/03 08:43:05;;;;;;;34.33;17.13;;;4.80;71.80;;;;;;5091208;28;20024;-67
2023/12/03 08:45:32;;;;;;;31.53;16.70;;;4.90;71.60;;;;;;5059106;28;20527;-69
2023/12/03 08:48:00;;;;;;;35.53;17.53;;;4.90;71.40;;;;;;5070310;28;20027;-67
2023/12/03 08:50:27;;;;;;;34.33;17.83;;;5.00;71.20;;;;;;5081633;28;20036;-69
2023/12/03 08:52:53;;;;;;;32.67;16.60;;;5.10;71.10;;;;;;5096639;28;20032;-68
2023/12/03 08:55:19;;;;;;;32.23;16.83;;;5.10;70.90;;;;;;5070217;28;20058;-68
2023/12/03 08:57:44;;;;;;;33.50;17.40;;;5.20;70.80;;;;;;5084173;28;20044;-68
2023/12/03 09:00:12;;;;;;;30.13;16.37;;;5.20;70.70;;;;;;5080394;28;20385;-67
2023/12/03 09:02:39;;;;;;;31.13;15.90;;;5.20;70.50;;;;;;5076623;28;20436;-67
2023/12/03 09:05:06;;;;;;;32.97;17.67;;;5.20;70.40;;;;;;5083880;28;20430;-67
2023/12/03 09:07:31;;;;;;;30.20;16.97;;;5.20;70.30;;;;;;5081066;28;20028;-68
2023/12/03 09:09:58;;;;;;;31.70;17.90;;;5.30;70.20;;;;;;5097680;28;20020;-68
2023/12/03 09:12:23;;;;;;;29.70;16.93;;;5.30;70.00;;;;;;5097518;28;20111;-68
2023/12/03 09:14:49;;;;;;;32.23;15.67;;;5.30;69.80;;;;;;5097069;28;20119;-68
2023/12/03 09:17:15;;;;;;;30.37;16.70;;;5.40;69.80;;;;;;5081207;28;20080;-68
2023/12/03 09:19:41;;;;;;;30.43;16.70;;;5.40;69.70;;;;;;5078403;28;20538;-69
2023/12/03 09:22:06;;;;;;;29.50;15.37;;;5.40;69.60;;;;;;5093635;28;20031;-69
2023/12/03 09:24:32;;;;;;;29.80;15.13;;;5.50;69.40;;;;;;5067686;28;20352;-68
2023/12/03 09:26:58;;;;;;;32.90;15.97;;;5.50;69.20;;;;;;5097656;28;20072;-67
2023/12/03 09:29:24;;;;;;;28.93;15.17;;;5.50;69.10;;;;;;5083362;28;20510;-68
2023/12/03 09:31:50;;;;;;;31.90;17.37;;;5.60;68.90;;;;;;5072888;28;20154;-67
2023/12/03 09:34:16;;;;;;;27.83;14.87;;;5.50;69.20;;;;;;5101054;28;20444;-68
2023/12/03 09:36:41;;;;;;;28.63;14.83;;;5.50;68.70;;;;;;5075571;28;20353;-68
2023/12/03 09:39:07;;;;;;;26.40;14.30;;;5.50;68.60;;;;;;5097195;28;20111;-67
2023/12/03 09:41:40;;;;;;;25.00;13.53;;;5.50;68.40;;;;;;5075004;28;20568;-68
2023/12/03 09:44:19;;;;;;;28.13;14.10;;;5.50;68.20;;;;;;5082484;28;20450;-68
2023/12/03 09:46:46;;;;;;;27.70;14.57;;;5.50;68.10;;;;;;5059675;28;20017;-67
2023/12/03 09:49:14;;;;;;;26.00;14.50;;;5.60;68.20;;;;;;5098042;28;20349;-67
2023/12/03 09:51:41;;;;;;;28.40;15.97;;;5.70;68.00;;;;;;5095010;28;20484;-68
2023/12/03 09:54:08;;;;;;;26.93;14.77;;;5.80;67.80;;;;;;5080531;28;20031;-68
2023/12/03 09:56:35;;;;;;;29.10;16.13;;;5.90;67.50;;;;;;5110438;28;20117;-68
2023/12/03 09:59:01;;;;;;;25.87;13.87;;;6.00;67.20;;;;;;5100045;28;20409;-68
2023/12/03 10:01:29;;;;;;;25.70;13.33;;;6.20;66.90;;;;;;5103590;28;20028;-68
2023/12/03 10:03:54;;;;;;;29.37;15.43;;;6.30;66.50;;;;;;5087070;28;20030;-68
2023/12/03 10:06:24;;;;;;;27.20;14.53;;;6.50;66.10;;;;;;5101080;28;20019;-69
2023/12/03 10:08:51;;;;;;;26.60;14.60;;;6.60;65.60;;;;;;5100142;28;20073;-68
2023/12/03 10:11:27;;;;;;;29.80;15.87;;;6.70;65.40;;;;;;5082550;28;20016;-68
2023/12/03 10:13:56;;;;;;;25.43;13.80;;;6.80;65.10;;;;;;5076192;28;21460;-68
2023/12/03 10:16:22;;;;;;;26.97;15.20;;;6.90;64.80;;;;;;5085521;28;20071;-68
2023/12/03 10:18:50;;;;;;;26.73;13.27;;;7.00;64.40;;;;;;5083879;28;20052;-68
2023/12/03 10:21:15;;;;;;;25.77;14.00;;;7.10;64.20;;;;;;5064457;28;20028;-68
2023/12/03 10:23:41;;;;;;;23.97;12.50;;;7.10;64.00;;;;;;5085091;28;20471;-68
2023/12/03 10:26:14;;;;;;;26.37;14.33;;;7.10;63.80;;;;;;5102796;28;20059;-67
2023/12/03 10:28:41;;;;;;;27.67;13.93;;;7.00;63.50;;;;;;5091709;28;20138;-68
2023/12/03 10:31:12;;;;;;;25.43;12.40;;;7.00;63.60;;;;;;5080885;28;20032;-67
2023/12/03 10:33:38;;;;;;;26.20;13.20;;;6.90;63.60;;;;;;5102694;28;20367;-69
2023/12/03 10:36:04;;;;;;;25.43;13.23;;;6.90;63.70;;;;;;5104146;28;20040;-68
2023/12/03 10:38:38;;;;;;;23.77;13.30;;;6.90;63.60;;;;;;5100907;28;20032;-68
2023/12/03 10:41:09;;;;;;;26.60;13.93;;;6.90;63.50;;;;;;5101213;28;20024;-68
2023/12/03 10:43:39;;;;;;;26.07;13.63;;;6.90;63.30;;;;;;5079282;28;20459;-68
2023/12/03 10:46:10;;;;;;;24.92;13.23;;;7.00;63.30;;;;;;5098211;28;20028;-69
2023/12/03 10:48:36;;;;;;;26.83;13.93;;;7.10;63.10;;;;;;5102754;28;20055;-69
2023/12/03 10:51:07;;;;;;;28.77;15.77;;;7.30;62.80;;;;;;5076947;28;20085;-69
2023/12/03 10:53:34;;;;;;;27.27;15.43;;;7.30;62.50;;;;;;5096897;28;20032;-71
2023/12/03 10:56:05;;;;;;;22.83;13.20;;;7.20;62.30;;;;;;5083683;28;20069;-69
2023/12/03 10:58:36;;;;;;;24.33;14.05;;;7.20;62.30;;;;;;5079062;28;20030;-69
2023/12/03 11:01:23;;;;;;;24.38;12.98;;;7.20;62.30;;;;;;5084751;28;20024;-70
2023/12/03 11:04:02;;;;;;;24.57;12.80;;;7.20;62.20;;;;;;5093117;28;20028;-69
2023/12/03 11:06:32;;;;;;;25.77;12.43;;;7.20;62.10;;;;;;5089772;28;20016;-69
2023/12/03 11:08:58;;;;;;;23.67;13.27;;;7.20;62.10;;;;;;5076149;28;20036;-69
2023/12/03 11:11:25;;;;;;;24.57;13.30;;;7.10;62.00;;;;;;5079939;28;20433;-69
2023/12/03 11:13:56;;;;;;;24.00;12.93;;;7.10;61.90;;;;;;5081296;28;20016;-69
2023/12/03 11:16:23;;;;;;;23.67;12.83;;;7.10;61.90;;;;;;5100602;28;20036;-69
2023/12/03 11:18:55;;;;;;;21.63;12.00;;;7.10;61.90;;;;;;5094400;28;20445;-69
2023/12/03 11:21:33;;;;;;;25.00;13.32;;;7.00;61.80;;;;;;5092852;28;20028;-69
2023/12/03 11:24:02;;;;;;;24.50;12.73;;;7.00;61.80;;;;;;5073798;28;20418;-69
2023/12/03 11:26:28;;;;;;;22.97;12.13;;;6.90;61.80;;;;;;5076934;28;20024;-69
2023/12/03 11:28:59;;;;;;;22.27;12.63;;;6.90;61.70;;;;;;5101172;28;20052;-69
2023/12/03 11:31:25;;;;;;;22.15;12.38;;;6.80;61.60;;;;;;5095471;28;20031;-69
2023/12/03 11:33:59;;;;;;;23.60;13.20;;;6.80;61.40;;;;;;5094623;28;20024;-69
2023/12/03 11:36:45;;;;;;;25.23;13.23;;;6.70;61.50;;;;;;5092436;28;20042;-69
2023/12/03 11:39:11;;;;;;;20.67;11.13;;;6.60;61.40;;;;;;5095099;28;20024;-70
2023/12/03 11:41:37;;;;;;;19.97;10.43;;;6.60;61.60;;;;;;5074428;28;20024;-69
2023/12/03 11:44:22;;;;;;;19.47;10.90;;;6.50;61.30;;;;;;5092856;28;20024;-69
2023/12/03 11:46:50;;;;;;;21.13;11.47;;;6.50;61.20;;;;;;5070006;28;20051;-69
2023/12/03 11:49:17;;;;;;;19.03;10.73;;;6.50;61.30;;;;;;5104809;28;20038;-68
2023/12/03 11:51:46;;;;;;;21.27;11.73;;;6.50;61.30;;;;;;5085088;28;20039;-69
2023/12/03 11:54:19;;;;;;;20.33;10.20;;;6.50;61.10;;;;;;5067452;28;20111;-69
2023/12/03 11:56:45;;;;;;;20.27;10.10;;;6.60;60.90;;;;;;5097874;28;20115;-69
2023/12/03 11:59:14;;;;;;;21.27;11.50;;;6.60;60.80;;;;;;5100769;28;20073;-69
2023/12/03 12:01:40;;;;;;;21.87;11.00;;;6.50;60.70;;;;;;5106986;28;20062;-69
2023/12/03 12:04:05;;;;;;;19.17;9.63;;;6.50;60.70;;;;;;5091871;28;20055;-68
2023/12/03 12:06:33;;;;;;;22.03;11.70;;;6.60;60.90;;;;;;5090652;28;20375;-70
2023/12/03 12:08:59;;;;;;;22.70;10.93;;;6.60;60.70;;;;;;5094009;28;20057;-69
2023/12/03 12:11:25;;;;;;;19.37;9.67;;;6.60;60.60;;;;;;5083041;28;20028;-69
2023/12/03 12:13:56;;;;;;;19.47;9.80;;;6.60;60.50;;;;;;5085061;28;20024;-69
2023/12/03 12:16:23;;;;;;;19.27;10.25;;;6.50;60.40;;;;;;5079030;28;20039;-69
2023/12/03 12:18:49;;;;;;;18.90;10.23;;;6.50;60.40;;;;;;5073469;28;20016;-70
2023/12/03 12:21:15;;;;;;;21.37;11.60;;;6.50;60.50;;;;;;5074529;28;20046;-70
2023/12/03 12:23:43;;;;;;;19.67;10.03;;;6.50;60.30;;;;;;5080357;28;20055;-70
2023/12/03 12:26:09;;;;;;;18.13;9.23;;;6.50;60.30;;;;;;5110320;28;20027;-69
2023/12/03 12:28:36;;;;;;;19.13;9.87;;;6.50;60.20;;;;;;5080197;28;20028;-70
2023/12/03 12:31:02;;;;;;;21.47;9.20;;;6.50;60.20;;;;;;5107285;28;20432;-69
2023/12/03 12:33:28;;;;;;;21.10;10.67;;;6.50;60.10;;;;;;5102710;28;20023;-69
2023/12/03 12:36:02;;;;;;;19.97;9.27;;;6.50;60.00;;;;;;5081541;28;20029;-69